createdAt,value
2022-08-19T00:05:05.675Z,2.80
2022-08-19T00:07:33.342Z,2.33
2022-08-19T00:10:00.994Z,2.60
2022-08-19T00:12:28.661Z,2.55
2022-08-19T00:14:56.214Z,2.92
2022-08-19T00:17:23.774Z,2.60
2022-08-19T00:19:51.125Z,2.60
2022-08-19T00:26:30.796Z,2.75
2022-08-19T00:28:58.355Z,2.53
2022-08-19T00:35:44.780Z,2.22
2022-08-19T00:38:12.244Z,2.70
2022-08-19T00:40:39.588Z,3.10
2022-08-19T00:47:19.155Z,2.53
2022-08-19T00:49:53.979Z,2.10
2022-08-19T00:56:35.490Z,2.63
2022-08-19T00:59:03.972Z,2.10
2022-08-19T01:01:31.467Z,2.30
2022-08-19T01:04:00.730Z,2.58
2022-08-19T01:06:28.896Z,2.63
2022-08-19T01:08:56.746Z,2.95
2022-08-19T01:11:27.089Z,2.40
2022-08-19T01:13:56.799Z,3.00
2022-08-19T01:16:29.687Z,2.50
2022-08-19T01:23:23.173Z,2.40
2022-08-19T01:25:56.055Z,2.42
2022-08-19T01:32:59.788Z,2.22
2022-08-19T01:35:30.007Z,2.65
2022-08-19T01:42:13.254Z,3.20
2022-08-19T01:44:44.506Z,2.95
2022-08-19T01:47:12.060Z,2.80
2022-08-19T01:49:39.618Z,2.20
2022-08-19T01:52:07.891Z,2.75
2022-08-19T01:59:01.895Z,2.50
2022-08-19T02:01:33.282Z,3.20
2022-08-19T02:08:13.117Z,3.50
2022-08-19T02:10:44.256Z,3.17
2022-08-19T02:13:15.136Z,2.90
2022-08-19T02:15:43.883Z,3.40
2022-08-19T02:18:12.153Z,3.35
2022-08-19T02:20:44.018Z,3.25
2022-08-19T02:23:16.159Z,3.13
2022-08-19T02:25:45.686Z,3.42
2022-08-19T02:28:17.893Z,3.15
2022-08-19T02:30:47.254Z,3.38
2022-08-19T02:33:14.813Z,4.13
2022-08-19T02:35:47.283Z,3.88
2022-08-19T02:38:28.361Z,3.00
2022-08-19T02:41:03.697Z,2.85
2022-08-19T02:43:34.626Z,3.45
2022-08-19T02:46:03.323Z,3.38
2022-08-19T02:48:31.495Z,2.55
2022-08-19T02:50:58.848Z,3.22
2022-08-19T02:53:28.661Z,3.30
2022-08-19T03:00:16.398Z,3.65
2022-08-19T03:02:43.955Z,3.00
2022-08-19T03:09:38.693Z,3.35
2022-08-19T03:12:06.866Z,3.20
2022-08-19T03:18:41.207Z,3.13
2022-08-19T03:25:44.429Z,3.47
2022-08-19T03:28:14.242Z,3.65
2022-08-19T03:35:01.485Z,3.17
2022-08-19T03:41:45.337Z,3.33
2022-08-19T03:44:17.055Z,3.10
2022-08-19T03:51:04.658Z,3.38
2022-08-19T03:53:34.064Z,3.60
2022-08-19T04:00:19.459Z,4.13
2022-08-19T04:07:17.075Z,4.50
2022-08-19T04:16:37.072Z,3.00
2022-08-19T04:19:07.727Z,3.58
2022-08-19T04:26:01.408Z,2.03
2022-08-19T04:28:38.278Z,1.70
2022-08-19T04:31:07.273Z,1.20
2022-08-19T04:33:35.852Z,1.20
2022-08-19T04:36:05.458Z,1.23
2022-08-19T04:42:49.972Z,1.30
2022-08-19T04:45:27.228Z,1.20
2022-08-19T04:52:22.181Z,1.30
2022-08-19T04:54:58.007Z,1.23
2022-08-19T05:01:52.625Z,1.50
2022-08-19T05:08:44.468Z,1.77
2022-08-19T05:11:26.584Z,1.65
2022-08-19T05:18:31.633Z,2.00
2022-08-19T05:21:17.728Z,2.58
2022-08-19T05:32:42.478Z,1.67
2022-08-19T05:39:36.707Z,1.73
2022-08-19T05:42:10.181Z,1.80
2022-08-19T05:48:57.836Z,2.95
2022-08-19T05:51:29.206Z,2.70
2022-08-19T05:58:28.241Z,3.13
2022-08-19T06:00:56.377Z,3.15
2022-08-19T06:03:24.240Z,2.92
2022-08-19T06:05:52.288Z,2.95
2022-08-19T06:08:20.484Z,3.00
2022-08-19T06:15:19.195Z,2.80
2022-08-19T06:17:46.799Z,3.75
2022-08-19T06:24:27.859Z,3.30
2022-08-19T06:27:00.827Z,2.50
2022-08-19T06:29:31.293Z,3.17
2022-08-19T06:32:00.975Z,2.72
2022-08-19T06:34:30.799Z,3.20
2022-08-19T06:37:03.370Z,2.58
2022-08-19T06:39:36.418Z,2.53
2022-08-19T06:42:07.598Z,2.42
2022-08-19T06:44:42.406Z,2.30
2022-08-19T06:47:23.835Z,2.80
2022-08-19T06:54:19.529Z,2.80
2022-08-19T07:01:09.087Z,1.92
2022-08-19T07:03:39.690Z,2.50
2022-08-19T07:10:34.089Z,1.73
2022-08-19T07:13:02.258Z,1.85
2022-08-19T07:19:48.176Z,1.90
2022-08-19T07:22:17.332Z,1.65
2022-08-19T07:24:51.080Z,2.03
2022-08-19T07:36:23.194Z,1.10
2022-08-19T07:38:55.770Z,1.33
2022-08-19T07:45:43.729Z,0.90
2022-08-19T07:48:11.701Z,0.80
2022-08-19T07:50:39.856Z,0.90
2022-08-19T07:53:07.531Z,0.93
2022-08-19T07:55:41.183Z,1.05
2022-08-19T07:58:10.741Z,1.02
2022-08-19T08:00:38.916Z,0.80
2022-08-19T08:07:49.706Z,0.80
2022-08-19T08:10:20.588Z,0.80
2022-08-19T08:17:10.983Z,1.02
2022-08-19T08:19:39.240Z,0.90
2022-08-19T08:22:07.513Z,0.90
2022-08-19T08:24:37.327Z,0.90
2022-08-19T08:31:29.688Z,1.50
2022-08-19T08:33:57.347Z,1.08
2022-08-19T08:36:25.930Z,1.48
2022-08-19T08:41:46.020Z,1.23
2022-08-19T08:44:22.026Z,1.70
2022-08-19T08:47:02.337Z,1.15
2022-08-19T08:49:34.005Z,1.20
2022-08-19T08:56:17.022Z,0.95
2022-08-19T09:03:11.257Z,1.10
2022-08-19T09:05:48.974Z,1.20
2022-08-19T09:13:00.673Z,0.90
2022-08-19T09:15:39.088Z,1.13
2022-08-19T09:22:27.219Z,1.10
2022-08-19T09:24:55.316Z,1.40
2022-08-19T09:27:42.094Z,1.10
2022-08-19T09:30:18.682Z,1.05
2022-08-19T09:32:46.769Z,1.65
2022-08-19T09:35:15.689Z,1.10
2022-08-19T09:37:51.943Z,1.30
2022-08-19T09:40:26.280Z,1.15
2022-08-19T09:42:54.410Z,1.50
2022-08-19T09:45:23.271Z,1.60
2022-08-19T09:47:54.823Z,1.65
2022-08-19T09:50:24.440Z,1.70
2022-08-19T09:52:57.048Z,1.83
2022-08-19T09:55:31.639Z,1.80
2022-08-19T09:58:04.029Z,1.77
2022-08-19T10:00:32.815Z,2.10
2022-08-19T10:03:01.008Z,1.63
2022-08-19T10:05:48.563Z,1.83
2022-08-19T10:08:24.266Z,1.90
2022-08-19T10:10:56.140Z,1.88
2022-08-19T10:13:28.289Z,1.67
2022-08-19T10:15:58.618Z,1.67
2022-08-19T10:18:26.797Z,1.83
2022-08-19T10:21:02.944Z,1.70
2022-08-19T10:23:33.709Z,1.90
2022-08-19T10:26:04.716Z,1.80
2022-08-19T10:28:32.079Z,2.33
2022-08-19T10:31:00.552Z,2.35
2022-08-19T10:33:53.048Z,2.25
2022-08-19T10:36:21.884Z,1.73
2022-08-19T10:41:59.086Z,1.90
2022-08-19T10:48:38.445Z,1.65
2022-08-19T10:51:25.152Z,1.80
2022-08-19T10:53:53.746Z,1.70
2022-08-19T10:56:39.728Z,2.20
2022-08-19T10:59:07.598Z,2.17
2022-08-19T11:01:37.247Z,2.00
2022-08-19T11:04:06.077Z,2.38
2022-08-19T11:06:34.056Z,2.67
2022-08-19T11:09:01.417Z,2.60
2022-08-19T11:11:29.886Z,2.65
2022-08-19T11:13:57.552Z,2.78
2022-08-19T11:16:27.768Z,2.88
2022-08-19T11:18:59.736Z,3.10
2022-08-19T11:25:20.862Z,2.80
2022-08-19T11:27:52.552Z,3.22
2022-08-19T11:30:20.284Z,2.95
2022-08-19T11:32:49.625Z,2.88
2022-08-19T11:39:38.214Z,2.80
2022-08-19T11:42:28.548Z,2.90
2022-08-19T11:49:14.012Z,2.70
2022-08-19T11:56:01.604Z,2.80
2022-08-19T11:58:30.401Z,2.33
2022-08-19T12:05:23.580Z,2.00
2022-08-19T12:07:51.133Z,2.25
2022-08-19T12:10:19.475Z,2.08
2022-08-19T12:17:08.920Z,2.10
2022-08-19T12:19:38.717Z,1.90
2022-08-19T12:26:19.205Z,2.20
2022-08-19T12:28:47.380Z,2.42
2022-08-19T12:35:45.570Z,1.92
2022-08-19T12:38:14.159Z,2.20
2022-08-19T12:40:41.926Z,2.10
2022-08-19T12:43:09.780Z,2.10
2022-08-19T12:45:37.491Z,2.28
2022-08-19T12:48:33.150Z,1.75
2022-08-19T12:50:55.711Z,2.00
2022-08-19T12:53:23.152Z,1.88
2022-08-19T12:55:57.899Z,1.83
2022-08-19T12:58:27.388Z,2.20
2022-08-19T13:00:55.186Z,2.50
2022-08-19T13:03:28.761Z,1.77
2022-08-19T13:05:56.625Z,1.67
2022-08-19T13:08:24.591Z,2.00
2022-08-19T13:10:52.151Z,2.40
2022-08-19T13:13:19.944Z,1.92
2022-08-19T13:15:48.703Z,1.58
2022-08-19T13:22:41.372Z,1.90
2022-08-19T13:25:09.852Z,2.00
2022-08-19T13:36:34.908Z,1.90
2022-08-19T13:39:02.774Z,2.30
2022-08-19T13:41:30.229Z,2.03
2022-08-19T13:43:58.408Z,2.30
2022-08-19T13:46:25.960Z,2.42
2022-08-19T13:48:53.417Z,2.10
2022-08-19T13:51:21.072Z,2.20
2022-08-19T13:58:06.586Z,1.90
2022-08-19T14:00:41.351Z,2.08
2022-08-19T14:07:20.671Z,2.30
2022-08-19T14:09:48.025Z,1.90
2022-08-19T14:12:28.831Z,2.40
2022-08-19T14:14:56.760Z,2.05
2022-08-19T14:17:24.418Z,2.28
2022-08-19T14:19:57.607Z,2.45
2022-08-19T14:22:25.268Z,2.15
2022-08-19T14:24:52.727Z,2.42
2022-08-19T14:27:20.180Z,2.20
2022-08-19T14:29:47.637Z,2.05
2022-08-19T14:32:16.210Z,2.35
2022-08-19T14:39:10.641Z,2.05
2022-08-19T14:41:41.262Z,2.00
2022-08-19T14:48:33.710Z,2.17
2022-08-19T14:51:01.395Z,2.65
2022-08-19T14:57:48.579Z,2.40
2022-08-19T15:00:16.607Z,2.50
2022-08-19T15:02:47.236Z,2.35
2022-08-19T15:05:15.921Z,2.42
2022-08-19T15:07:44.400Z,2.35
2022-08-19T15:10:14.005Z,2.85
2022-08-19T15:12:43.628Z,2.00
2022-08-19T15:19:23.788Z,2.30
2022-08-19T15:21:51.245Z,2.20
2022-08-19T15:28:44.228Z,2.25
2022-08-19T15:31:25.177Z,2.45
2022-08-19T15:38:22.791Z,2.30
2022-08-19T15:45:15.766Z,2.40
2022-08-19T15:47:43.738Z,2.70
2022-08-19T15:54:35.688Z,2.75
2022-08-19T15:57:21.675Z,2.33
2022-08-19T16:04:26.331Z,3.35
2022-08-19T16:07:00.646Z,3.22
2022-08-19T16:13:52.604Z,2.75
2022-08-19T16:16:27.780Z,2.97
2022-08-19T16:19:10.266Z,2.40
2022-08-19T16:21:41.809Z,3.13
2022-08-19T16:24:13.353Z,2.70
2022-08-19T16:26:42.856Z,2.50
2022-08-19T16:29:12.237Z,2.30
2022-08-19T16:31:43.749Z,2.17
2022-08-19T16:34:12.094Z,3.50
2022-08-19T16:36:43.740Z,4.25
2022-08-19T16:39:15.166Z,3.00
2022-08-19T16:41:44.894Z,3.15
2022-08-19T16:44:14.812Z,2.60
2022-08-19T16:46:42.543Z,2.28
2022-08-19T16:49:11.159Z,2.05
2022-08-19T16:51:39.954Z,3.10
2022-08-19T16:54:07.806Z,3.10
2022-08-19T17:01:04.138Z,2.80
2022-08-19T17:10:28.592Z,2.85
2022-08-19T17:12:56.218Z,2.80
2022-08-19T17:19:54.883Z,2.67
2022-08-19T17:22:22.510Z,2.92
2022-08-19T17:24:50.186Z,2.80
2022-08-19T17:30:16.759Z,3.50
2022-08-19T17:32:43.559Z,3.35
2022-08-19T17:35:10.621Z,3.10
2022-08-19T17:37:38.031Z,3.40
2022-08-19T17:40:07.668Z,3.30
2022-08-19T17:42:36.500Z,3.13
2022-08-19T17:45:04.586Z,3.40
2022-08-19T17:47:31.590Z,3.42
2022-08-19T17:49:58.523Z,3.00
2022-08-19T17:52:25.681Z,2.72
2022-08-19T17:54:52.427Z,2.92
2022-08-19T17:57:19.098Z,3.03
2022-08-19T17:59:46.166Z,2.95
2022-08-19T18:02:13.279Z,2.60
2022-08-19T18:04:40.059Z,3.08
2022-08-19T18:07:06.875Z,2.67
2022-08-19T18:09:41.743Z,3.17
2022-08-19T18:12:15.660Z,3.10
2022-08-19T18:14:42.553Z,3.22
2022-08-19T18:17:12.410Z,2.92
2022-08-19T18:19:43.577Z,3.13
2022-08-19T18:22:29.086Z,3.03
2022-08-19T18:24:57.443Z,3.00
2022-08-19T18:27:27.701Z,3.75
2022-08-19T18:29:59.420Z,2.90
2022-08-19T18:32:29.526Z,3.17
2022-08-19T18:34:56.243Z,3.63
2022-08-19T18:37:25.355Z,3.45
2022-08-19T18:40:10.825Z,3.58
2022-08-19T18:43:01.200Z,3.53
2022-08-19T18:45:46.919Z,3.17
2022-08-19T18:48:32.106Z,3.97
2022-08-19T18:51:00.602Z,3.60
2022-08-19T18:53:29.363Z,3.45
2022-08-19T18:55:56.622Z,3.85
2022-08-19T18:58:34.727Z,4.20
2022-08-19T19:01:20.897Z,3.50
2022-08-19T19:03:53.424Z,3.30
2022-08-19T19:08:50.838Z,3.33
2022-08-19T19:11:23.393Z,3.47
2022-08-19T19:13:50.061Z,3.90
2022-08-19T19:16:22.385Z,3.78
2022-08-19T19:18:52.366Z,3.90
2022-08-19T19:21:20.944Z,3.80
2022-08-19T19:23:47.645Z,4.28
2022-08-19T19:26:14.540Z,3.78
2022-08-19T19:28:48.714Z,3.53
2022-08-19T19:31:22.777Z,3.45
2022-08-19T19:33:50.097Z,3.67
2022-08-19T19:36:16.774Z,3.70
2022-08-19T19:38:48.375Z,3.63
2022-08-19T19:41:17.976Z,4.00
2022-08-19T19:43:44.708Z,4.50
2022-08-19T19:46:11.425Z,4.40
2022-08-19T19:48:38.270Z,5.15
2022-08-19T19:51:05.707Z,4.45
2022-08-19T19:53:33.802Z,3.97
2022-08-19T19:56:02.171Z,4.97
2022-08-19T19:58:31.226Z,5.07
2022-08-19T20:00:59.327Z,5.43
2022-08-19T20:03:27.234Z,4.85
2022-08-19T20:05:54.876Z,5.20
2022-08-19T20:08:39.917Z,4.78
2022-08-19T20:11:07.311Z,4.60
2022-08-19T20:13:35.285Z,4.55
2022-08-19T20:16:04.727Z,4.63
2022-08-19T20:18:31.473Z,4.78
2022-08-19T20:20:59.258Z,4.85
2022-08-19T20:23:26.495Z,5.43
2022-08-19T20:25:54.352Z,4.47
2022-08-19T20:28:22.871Z,5.25
2022-08-19T20:30:50.123Z,4.82
2022-08-19T20:33:17.014Z,4.82
2022-08-19T20:35:44.348Z,5.15
2022-08-19T20:38:11.215Z,5.25
2022-08-19T20:40:38.790Z,5.10
2022-08-19T20:43:14.230Z,5.28
2022-08-19T20:45:43.279Z,4.82
2022-08-19T20:48:12.251Z,5.13
2022-08-19T20:50:39.462Z,4.90
2022-08-19T20:53:14.774Z,5.15
2022-08-19T20:55:44.470Z,4.93
2022-08-19T20:58:12.682Z,4.50
2022-08-19T21:00:40.520Z,5.00
2022-08-19T21:03:07.347Z,5.05
2022-08-19T21:05:34.113Z,4.50
2022-08-19T21:08:00.906Z,5.10
2022-08-19T21:10:27.579Z,5.13
2022-08-19T21:12:55.423Z,5.38
2022-08-19T21:15:24.579Z,5.60
2022-08-19T21:17:51.941Z,4.75
2022-08-19T21:20:18.895Z,4.63
2022-08-19T21:22:45.684Z,4.80
2022-08-19T21:25:12.370Z,4.55
2022-08-19T21:27:39.030Z,4.35
2022-08-19T21:30:06.461Z,4.25
2022-08-19T21:32:33.260Z,4.45
2022-08-19T21:34:59.966Z,4.55
2022-08-19T21:37:26.787Z,4.80
2022-08-19T21:39:54.815Z,4.65
2022-08-19T21:42:23.197Z,4.95
2022-08-19T21:44:49.953Z,5.30
2022-08-19T21:47:16.655Z,4.82
2022-08-19T21:49:43.401Z,4.80
2022-08-19T21:52:10.051Z,4.00
2022-08-19T21:54:37.996Z,4.60
2022-08-19T21:57:10.666Z,4.70
2022-08-19T21:59:41.264Z,4.45
2022-08-19T22:02:22.357Z,4.53
2022-08-19T22:04:50.698Z,5.05
2022-08-19T22:07:17.487Z,5.20
2022-08-19T22:09:46.304Z,5.00
2022-08-19T22:12:47.316Z,4.80
2022-08-19T22:15:21.266Z,4.40
2022-08-19T22:17:48.217Z,4.43
2022-08-19T22:20:17.581Z,5.78
2022-08-19T22:23:00.514Z,5.00
2022-08-19T22:25:32.007Z,4.78
2022-08-19T22:28:02.928Z,4.72
2022-08-19T22:30:33.077Z,4.70
2022-08-19T22:33:02.450Z,4.30
2022-08-19T22:35:33.364Z,4.28
2022-08-19T22:38:01.147Z,4.47
2022-08-19T22:40:30.448Z,4.70
2022-08-19T22:43:03.424Z,4.93
2022-08-19T22:45:31.643Z,5.45
2022-08-19T22:47:58.327Z,4.65
2022-08-19T22:50:25.983Z,4.90
2022-08-19T22:52:57.950Z,4.60
2022-08-19T22:55:26.635Z,4.85
2022-08-19T22:57:53.730Z,4.30
2022-08-19T23:00:22.592Z,4.60
2022-08-19T23:02:51.670Z,4.50
2022-08-19T23:05:22.213Z,5.43
2022-08-19T23:07:52.288Z,5.20
2022-08-19T23:10:26.594Z,5.25
2022-08-19T23:12:56.853Z,5.05
2022-08-19T23:15:27.489Z,4.93
2022-08-19T23:17:56.428Z,4.88
2022-08-19T23:20:27.025Z,4.90
2022-08-19T23:22:54.964Z,4.55
2022-08-19T23:25:24.899Z,4.55
2022-08-19T23:28:10.391Z,4.13
2022-08-19T23:30:43.310Z,4.85
2022-08-19T23:33:24.266Z,4.57
2022-08-19T23:36:04.864Z,4.82
2022-08-19T23:38:32.674Z,5.45
2022-08-19T23:41:02.421Z,4.22
2022-08-19T23:43:31.281Z,4.30
2022-08-19T23:46:02.773Z,5.00
2022-08-19T23:48:37.879Z,4.30
2022-08-19T23:51:07.111Z,5.20
2022-08-19T23:53:34.863Z,5.00
2022-08-19T23:56:01.558Z,4.88
2022-08-19T23:58:30.041Z,5.10
